createdAt,value
2023-03-01T00:00:05.438Z,21.80
2023-03-01T00:02:32.201Z,19.80
2023-03-01T00:04:59.108Z,21.33
2023-03-01T00:07:25.829Z,20.93
2023-03-01T00:09:52.510Z,21.07
2023-03-01T00:12:19.269Z,20.80
2023-03-01T00:14:45.960Z,19.80
2023-03-01T00:17:12.802Z,20.30
2023-03-01T00:19:39.570Z,22.17
2023-03-01T00:22:06.336Z,22.63
2023-03-01T00:24:33.101Z,21.50
2023-03-01T00:27:00.062Z,21.43
2023-03-01T00:29:26.874Z,21.70
2023-03-01T00:31:53.668Z,21.27
2023-03-01T00:34:20.459Z,20.23
2023-03-01T00:36:47.424Z,21.33
2023-03-01T00:39:16.082Z,19.63
2023-03-01T00:41:43.855Z,21.70
2023-03-01T00:44:11.786Z,21.50
2023-03-01T00:46:38.561Z,20.70
2023-03-01T00:49:05.664Z,21.17
2023-03-01T00:51:33.170Z,21.60
2023-03-01T00:54:02.836Z,22.27
2023-03-01T00:56:30.815Z,21.77
2023-03-01T00:58:57.992Z,20.70
2023-03-01T01:01:33.325Z,23.10
2023-03-01T01:04:04.190Z,21.87
2023-03-01T01:06:35.007Z,21.83
2023-03-01T01:09:02.670Z,21.57
2023-03-01T01:11:30.780Z,21.67
2023-03-01T01:13:58.394Z,23.43
2023-03-01T01:16:27.507Z,20.10
2023-03-01T01:18:54.520Z,22.33
2023-03-01T01:21:24.145Z,21.90
2023-03-01T01:23:52.609Z,21.83
2023-03-01T01:26:22.257Z,21.40
2023-03-01T01:28:49.938Z,20.37
2023-03-01T01:31:17.334Z,21.07
2023-03-01T01:33:44.499Z,19.70
2023-03-01T01:36:11.917Z,19.63
2023-03-01T01:38:39.599Z,20.40
2023-03-01T01:41:06.977Z,19.20
2023-03-01T01:43:39.595Z,19.37
2023-03-01T01:46:40.931Z,19.77
2023-03-01T01:49:43.099Z,20.80
2023-03-01T01:52:30.710Z,19.87
2023-03-01T01:55:09.153Z,20.43
2023-03-01T01:57:46.290Z,20.23
2023-03-01T02:00:17.005Z,20.57
2023-03-01T02:02:45.773Z,20.13
2023-03-01T02:05:21.520Z,20.53
2023-03-01T02:07:49.673Z,19.80
2023-03-01T02:10:17.316Z,21.63
2023-03-01T02:12:44.442Z,20.23
2023-03-01T02:15:11.491Z,21.50
2023-03-01T02:17:38.877Z,22.93
2023-03-01T02:20:28.109Z,19.50
2023-03-01T02:22:55.463Z,21.07
2023-03-01T02:25:22.193Z,20.70
2023-03-01T02:28:09.614Z,21.60
2023-03-01T02:30:36.984Z,21.30
2023-03-01T02:33:05.438Z,20.57
2023-03-01T02:35:39.590Z,22.77
2023-03-01T02:38:09.790Z,22.70
2023-03-01T02:40:38.694Z,20.60
2023-03-01T02:43:09.474Z,21.23
2023-03-01T02:45:36.256Z,20.27
2023-03-01T02:48:03.031Z,23.10
2023-03-01T02:50:29.687Z,22.50
2023-03-01T02:53:05.664Z,21.07
2023-03-01T02:55:32.406Z,22.23
2023-03-01T02:58:03.100Z,22.13
2023-03-01T03:00:36.587Z,20.90
2023-03-01T03:03:03.367Z,23.23
2023-03-01T03:05:32.510Z,21.43
2023-03-01T03:08:01.501Z,23.47
2023-03-01T03:10:31.248Z,22.07
2023-03-01T03:13:10.218Z,21.60
2023-03-01T03:15:37.244Z,21.43
2023-03-01T03:18:06.469Z,23.67
2023-03-01T03:20:34.288Z,24.40
2023-03-01T03:23:01.375Z,22.40
2023-03-01T03:25:30.001Z,24.63
2023-03-01T03:27:58.832Z,23.00
2023-03-01T03:30:31.500Z,24.17
2023-03-01T03:32:59.512Z,22.03
2023-03-01T03:35:32.244Z,23.00
2023-03-01T03:38:07.236Z,22.10
2023-03-01T03:40:38.736Z,24.10
2023-03-01T03:43:14.210Z,23.60
2023-03-01T03:45:41.412Z,25.13
2023-03-01T03:48:11.004Z,24.67
2023-03-01T03:50:39.294Z,22.63
2023-03-01T03:53:09.183Z,24.70
2023-03-01T03:55:36.272Z,24.80
2023-03-01T03:58:07.936Z,24.17
2023-03-01T04:00:37.290Z,24.20
2023-03-01T04:03:04.473Z,23.60
2023-03-01T04:05:31.674Z,22.50
2023-03-01T04:08:08.217Z,23.30
2023-03-01T04:10:48.287Z,24.17
2023-03-01T04:13:20.569Z,24.63
2023-03-01T04:15:49.516Z,22.97
2023-03-01T04:18:18.153Z,23.10
2023-03-01T04:20:45.956Z,24.07
2023-03-01T04:23:17.054Z,23.57
2023-03-01T04:25:54.452Z,24.20
2023-03-01T04:28:35.177Z,24.93
2023-03-01T04:31:14.662Z,23.43
2023-03-01T04:33:53.093Z,24.00
2023-03-01T04:36:21.727Z,25.20
2023-03-01T04:38:48.638Z,23.50
2023-03-01T04:41:17.753Z,23.37
2023-03-01T04:43:44.620Z,24.27
2023-03-01T04:46:16.588Z,23.43
2023-03-01T04:48:44.897Z,24.67
2023-03-01T04:51:14.470Z,25.13
2023-03-01T04:53:42.397Z,23.53
2023-03-01T04:56:09.238Z,21.80
2023-03-01T04:58:36.200Z,24.80
2023-03-01T05:01:16.099Z,23.50
2023-03-01T05:03:48.487Z,22.37
2023-03-01T05:06:16.450Z,25.83
2023-03-01T05:08:44.190Z,26.43
2023-03-01T05:11:11.537Z,23.70
2023-03-01T05:13:39.812Z,25.20
2023-03-01T05:16:08.076Z,25.23
2023-03-01T05:18:35.924Z,23.47
2023-03-01T05:21:05.742Z,23.30
2023-03-01T05:23:34.267Z,23.70
2023-03-01T05:26:02.510Z,22.03
2023-03-01T05:28:29.556Z,24.20
2023-03-01T05:30:56.743Z,25.17
2023-03-01T05:33:24.189Z,23.47
2023-03-01T05:35:52.760Z,23.83
2023-03-01T05:38:19.776Z,24.53
2023-03-01T05:40:48.452Z,24.77
2023-03-01T05:43:17.721Z,25.53
2023-03-01T05:45:44.878Z,24.53
2023-03-01T05:48:12.746Z,23.10
2023-03-01T05:50:42.392Z,23.70
2023-03-01T05:53:15.774Z,24.00
2023-03-01T05:55:43.888Z,24.13
2023-03-01T05:58:12.959Z,24.03
2023-03-01T06:00:40.467Z,25.70
2023-03-01T06:03:07.332Z,23.17
2023-03-01T06:05:34.141Z,23.43
2023-03-01T06:08:01.689Z,24.33
2023-03-01T06:10:29.127Z,25.10
2023-03-01T06:12:55.953Z,24.13
2023-03-01T06:15:23.646Z,24.07
2023-03-01T06:17:50.512Z,24.87
2023-03-01T06:20:19.009Z,23.53
2023-03-01T06:22:47.311Z,23.57
2023-03-01T06:25:16.797Z,23.23
2023-03-01T06:27:43.816Z,23.30
2023-03-01T06:30:13.070Z,24.67
2023-03-01T06:32:42.803Z,26.13
2023-03-01T06:35:11.943Z,25.23
2023-03-01T06:37:38.816Z,23.27
2023-03-01T06:40:09.824Z,24.03
2023-03-01T06:42:36.862Z,24.20
2023-03-01T06:45:05.301Z,26.33
2023-03-01T06:47:33.549Z,24.17
2023-03-01T06:50:04.214Z,25.30
2023-03-01T06:52:31.403Z,24.90
2023-03-01T06:54:58.168Z,24.53
2023-03-01T06:57:25.135Z,24.60
2023-03-01T06:59:51.843Z,25.33
2023-03-01T07:02:19.242Z,25.67
2023-03-01T07:04:46.037Z,29.57
2023-03-01T07:07:13.061Z,27.73
2023-03-01T07:09:39.779Z,27.37
2023-03-01T07:12:06.811Z,23.77
2023-03-01T07:14:33.598Z,25.20
2023-03-01T07:17:00.560Z,26.17
2023-03-01T07:19:27.409Z,26.40
2023-03-01T07:21:54.237Z,26.63
2023-03-01T07:24:21.208Z,26.67
2023-03-01T07:26:52.136Z,26.60
2023-03-01T07:29:19.355Z,27.40
2023-03-01T07:31:46.244Z,27.07
2023-03-01T07:34:13.101Z,26.53
2023-03-01T07:36:40.671Z,26.20
2023-03-01T07:39:07.643Z,27.23
2023-03-01T07:41:34.512Z,27.07
2023-03-01T07:44:01.244Z,26.93
2023-03-01T07:46:28.385Z,26.03
2023-03-01T07:48:55.311Z,26.77
2023-03-01T07:51:22.367Z,26.37
2023-03-01T07:53:49.686Z,27.53
2023-03-01T07:56:18.689Z,25.37
2023-03-01T07:58:45.968Z,26.37
2023-03-01T08:01:15.786Z,25.77
2023-03-01T08:03:44.619Z,27.20
2023-03-01T08:06:13.780Z,24.53
2023-03-01T08:08:40.945Z,25.63
2023-03-01T08:11:08.879Z,24.50
2023-03-01T08:13:35.677Z,27.53
2023-03-01T08:16:08.683Z,23.60
2023-03-01T08:18:35.693Z,27.73
2023-03-01T08:21:07.942Z,25.67
2023-03-01T08:23:35.020Z,27.17
2023-03-01T08:26:06.982Z,25.57
2023-03-01T08:28:33.914Z,24.67
2023-03-01T08:31:00.701Z,25.87
2023-03-01T08:33:27.816Z,26.40
2023-03-01T08:36:07.931Z,26.03
2023-03-01T08:38:35.766Z,25.83
2023-03-01T08:41:04.481Z,25.20
2023-03-01T08:43:31.380Z,26.70
2023-03-01T08:45:58.282Z,26.20
2023-03-01T08:48:25.361Z,25.53
2023-03-01T08:50:52.180Z,24.87
2023-03-01T08:53:19.122Z,25.60
2023-03-01T08:55:46.208Z,25.10
2023-03-01T08:58:13.137Z,27.13
2023-03-01T09:00:41.109Z,25.73
2023-03-01T09:03:07.830Z,24.90
2023-03-01T09:05:35.256Z,24.80
2023-03-01T09:08:02.072Z,24.83
2023-03-01T09:10:28.943Z,26.50
2023-03-01T09:12:56.108Z,27.70
2023-03-01T09:15:22.835Z,26.07
2023-03-01T09:17:49.542Z,26.33
2023-03-01T09:20:16.642Z,23.20
2023-03-01T09:22:43.438Z,25.50
2023-03-01T09:25:10.766Z,24.93
2023-03-01T09:27:37.596Z,24.63
2023-03-01T09:30:05.426Z,23.63
2023-03-01T09:32:32.763Z,26.00
2023-03-01T09:35:04.569Z,26.33
2023-03-01T09:37:33.278Z,25.03
2023-03-01T09:40:00.250Z,25.87
2023-03-01T09:42:29.088Z,25.30
2023-03-01T09:45:02.461Z,22.47
2023-03-01T09:47:32.877Z,23.90
2023-03-01T09:50:14.242Z,24.50
2023-03-01T09:52:44.488Z,24.30
2023-03-01T10:18:14.841Z,22.90
2023-03-01T10:21:00.403Z,22.50
2023-03-01T10:23:29.234Z,22.27
2023-03-01T10:26:30.200Z,22.80
2023-03-01T10:29:11.750Z,22.67
2023-03-01T10:31:51.588Z,21.10
2023-03-01T10:34:21.539Z,23.60
2023-03-01T10:36:54.049Z,22.80
2023-03-01T10:39:23.024Z,22.00
2023-03-01T10:41:55.100Z,22.47
2023-03-01T10:44:48.282Z,23.20
2023-03-01T10:47:22.470Z,24.67
2023-03-01T10:50:00.272Z,21.77
2023-03-01T10:52:34.047Z,22.53
2023-03-01T10:55:24.259Z,22.40
2023-03-01T10:57:51.367Z,23.57
2023-03-01T11:00:22.017Z,21.00
2023-03-01T11:02:58.632Z,22.23
2023-03-01T11:05:26.898Z,20.47
2023-03-01T11:07:57.467Z,20.83
2023-03-01T11:10:26.142Z,21.47
2023-03-01T11:13:24.820Z,20.30
2023-03-01T11:16:07.553Z,22.40
2023-03-01T11:18:47.149Z,20.07
2023-03-01T11:21:16.917Z,19.93
2023-03-01T11:23:46.591Z,21.67
2023-03-01T11:26:16.338Z,21.60
2023-03-01T11:28:45.676Z,21.33
2023-03-01T11:31:13.731Z,23.20
2023-03-01T11:34:09.895Z,21.83
2023-03-01T11:36:54.720Z,20.97
2023-03-01T11:39:47.859Z,19.57
2023-03-01T11:42:20.845Z,19.93
2023-03-01T11:44:55.943Z,20.70
2023-03-01T11:47:28.611Z,20.83
2023-03-01T11:50:14.341Z,20.47
2023-03-01T11:53:07.721Z,18.40
2023-03-01T11:55:34.468Z,20.20
2023-03-01T11:58:10.132Z,19.60
2023-03-01T12:01:12.537Z,19.10
2023-03-01T12:03:51.717Z,20.87
2023-03-01T12:06:25.133Z,17.57
2023-03-01T12:09:14.990Z,18.77
2023-03-01T12:12:19.521Z,19.63
2023-03-01T12:15:22.974Z,20.20
2023-03-01T12:18:10.257Z,19.20
2023-03-01T12:21:04.318Z,18.33
2023-03-01T12:23:39.887Z,17.33
2023-03-01T12:26:14.258Z,16.77
2023-03-01T12:29:25.248Z,19.57
2023-03-01T12:32:10.999Z,16.77
2023-03-01T12:35:09.864Z,16.40
2023-03-01T12:38:01.162Z,18.23
2023-03-01T12:40:44.100Z,17.20
2023-03-01T12:43:39.719Z,17.47
2023-03-01T12:46:40.230Z,16.93
2023-03-01T12:49:34.237Z,17.30
2023-03-01T12:52:10.461Z,17.10
2023-03-01T12:54:38.061Z,16.67
2023-03-01T12:57:18.388Z,17.97
2023-03-01T13:00:10.900Z,14.83
2023-03-01T13:03:02.054Z,17.90
2023-03-01T13:05:55.462Z,17.50
2023-03-01T13:08:35.717Z,17.20
2023-03-01T13:11:12.845Z,16.57
2023-03-01T13:13:39.626Z,15.40
2023-03-01T13:16:31.272Z,18.73
2023-03-01T13:19:10.994Z,18.80
2023-03-01T13:21:37.769Z,16.73
2023-03-01T13:24:04.883Z,19.80
2023-03-01T13:26:32.487Z,17.43
2023-03-01T13:29:01.959Z,18.87
2023-03-01T13:31:28.890Z,17.33
2023-03-01T13:34:02.412Z,18.50
2023-03-01T13:36:29.827Z,15.90
2023-03-01T13:38:58.347Z,19.20
2023-03-01T13:41:40.412Z,18.67
2023-03-01T13:44:36.962Z,19.50
2023-03-01T13:47:18.673Z,19.60
2023-03-01T13:50:01.246Z,20.70
2023-03-01T13:52:42.367Z,18.20
2023-03-01T13:55:18.106Z,19.27
2023-03-01T13:57:49.230Z,20.97
2023-03-01T14:00:35.851Z,22.40
2023-03-01T14:03:20.852Z,20.60
2023-03-01T14:06:15.329Z,21.17
2023-03-01T14:08:45.873Z,19.50
2023-03-01T14:11:39.154Z,22.00
2023-03-01T14:14:31.200Z,23.03
2023-03-01T14:17:09.774Z,22.33
2023-03-01T14:19:36.509Z,22.30
2023-03-01T14:22:30.971Z,20.20
2023-03-01T14:25:00.851Z,22.73
2023-03-01T14:27:32.529Z,23.70
2023-03-01T14:30:02.271Z,23.10
2023-03-01T14:32:31.447Z,20.70
2023-03-01T14:35:00.540Z,20.97
2023-03-01T14:37:30.632Z,20.83
2023-03-01T14:39:59.118Z,23.03
2023-03-01T14:42:30.198Z,22.97
2023-03-01T14:44:59.022Z,21.93
2023-03-01T14:47:34.662Z,22.70
2023-03-01T14:50:09.362Z,23.47
2023-03-01T14:52:42.705Z,23.57
2023-03-01T14:55:34.051Z,22.67
2023-03-01T14:58:03.400Z,20.30
2023-03-01T15:00:32.820Z,23.00
2023-03-01T15:03:22.623Z,21.53
2023-03-01T15:05:49.456Z,22.37
2023-03-01T15:08:25.439Z,24.30
2023-03-01T15:11:25.414Z,25.00
2023-03-01T15:13:53.726Z,36.87
2023-03-01T15:16:24.499Z,25.17
2023-03-01T15:18:57.654Z,25.17
2023-03-01T15:21:25.817Z,24.93
2023-03-01T15:24:05.847Z,27.90
2023-03-01T15:26:41.565Z,22.10
2023-03-01T15:29:18.807Z,26.00
2023-03-01T15:31:59.926Z,21.77
2023-03-01T15:34:35.012Z,24.17
2023-03-01T15:37:03.458Z,23.43
2023-03-01T15:39:39.059Z,24.40
2023-03-01T15:42:18.904Z,21.27
2023-03-01T15:44:48.405Z,21.63
2023-03-01T15:47:24.546Z,21.60
2023-03-01T15:49:55.795Z,23.30
2023-03-01T15:52:43.600Z,23.27
2023-03-01T15:55:30.994Z,21.90
2023-03-01T15:58:03.697Z,27.47
2023-03-01T16:00:30.801Z,30.53
2023-03-01T16:02:57.764Z,30.93
2023-03-01T16:05:31.542Z,37.33
2023-03-01T16:07:58.567Z,28.23
2023-03-01T16:10:25.657Z,32.60
2023-03-01T16:12:53.602Z,22.87
2023-03-01T16:15:25.024Z,33.83
2023-03-01T16:17:53.185Z,21.50
2023-03-01T16:20:30.965Z,22.40
2023-03-01T16:23:03.679Z,19.80
2023-03-01T16:25:31.296Z,18.90
2023-03-01T16:27:59.498Z,18.83
2023-03-01T16:30:26.320Z,21.03
2023-03-01T16:32:54.134Z,20.03
2023-03-01T16:35:22.376Z,20.47
2023-03-01T16:37:49.862Z,21.43
2023-03-01T16:40:21.846Z,20.87
2023-03-01T16:42:51.821Z,21.47
2023-03-01T16:45:24.345Z,20.33
2023-03-01T16:47:55.502Z,19.27
2023-03-01T16:50:23.405Z,19.83
2023-03-01T16:52:50.301Z,22.47
2023-03-01T16:55:17.589Z,20.77
2023-03-01T16:57:44.878Z,26.80
2023-03-01T17:00:14.162Z,53.50
2023-03-01T17:02:42.424Z,25.93
2023-03-01T17:05:11.063Z,21.83
2023-03-01T17:07:38.585Z,22.77
2023-03-01T17:10:08.988Z,22.60
2023-03-01T17:12:36.104Z,27.33
2023-03-01T17:15:03.809Z,24.40
2023-03-01T17:17:30.535Z,22.60
2023-03-01T17:19:57.458Z,22.40
2023-03-01T17:22:24.308Z,24.80
2023-03-01T17:24:51.006Z,23.30
2023-03-01T17:27:18.501Z,22.77
2023-03-01T17:29:45.556Z,22.33
2023-03-01T17:32:12.472Z,23.33
2023-03-01T17:34:39.879Z,24.23
2023-03-01T17:37:06.695Z,21.30
2023-03-01T17:39:36.344Z,22.53
2023-03-01T17:42:06.177Z,23.17
2023-03-01T17:44:35.778Z,23.47
2023-03-01T17:47:04.142Z,22.03
2023-03-01T17:49:31.357Z,23.70
2023-03-01T17:51:58.648Z,24.77
2023-03-01T17:54:26.136Z,23.10
2023-03-01T17:56:53.213Z,24.00
2023-03-01T17:59:20.025Z,23.87
2023-03-01T18:01:47.576Z,23.97
2023-03-01T18:04:14.416Z,25.17
2023-03-01T18:06:41.211Z,23.60
2023-03-01T18:09:08.574Z,24.53
2023-03-01T18:11:36.149Z,24.87
2023-03-01T18:14:04.324Z,25.10
2023-03-01T18:16:33.974Z,25.03
2023-03-01T18:19:01.984Z,24.63
2023-03-01T18:21:34.490Z,20.60
2023-03-01T18:24:01.929Z,14.40
2023-03-01T18:26:29.814Z,22.17
2023-03-01T18:28:58.397Z,18.80
2023-03-01T18:31:25.901Z,25.87
2023-03-01T18:33:55.103Z,24.73
2023-03-01T18:36:24.815Z,39.00
2023-03-01T18:38:56.556Z,24.50
2023-03-01T18:41:25.626Z,24.90
2023-03-01T18:43:53.717Z,24.23
2023-03-01T18:46:20.617Z,28.20
2023-03-01T18:48:48.178Z,26.90
2023-03-01T18:51:20.637Z,29.80
2023-03-01T18:53:47.496Z,25.27
2023-03-01T18:56:17.694Z,27.77
2023-03-01T18:58:45.761Z,26.77
2023-03-01T19:01:21.287Z,27.10
2023-03-01T19:03:48.208Z,29.03
2023-03-01T19:06:15.222Z,27.60
2023-03-01T19:08:44.405Z,28.93
2023-03-01T19:11:14.026Z,27.83
2023-03-01T19:13:41.331Z,28.30
2023-03-01T19:16:11.580Z,26.07
2023-03-01T19:18:42.337Z,28.23
2023-03-01T19:21:11.110Z,27.70
2023-03-01T19:23:39.001Z,27.43
2023-03-01T19:26:09.856Z,27.70
2023-03-01T19:28:39.196Z,29.43
2023-03-01T19:31:08.766Z,29.17
2023-03-01T19:33:36.619Z,28.23
2023-03-01T19:36:04.158Z,28.73
2023-03-01T19:38:31.101Z,44.40
2023-03-01T19:40:58.135Z,30.13
2023-03-01T19:43:25.340Z,28.27
2023-03-01T19:45:54.846Z,28.27
2023-03-01T19:48:23.184Z,29.53
2023-03-01T19:50:53.093Z,28.90
2023-03-01T19:53:20.807Z,29.07
2023-03-01T19:55:48.479Z,29.37
2023-03-01T19:58:15.381Z,29.20
2023-03-01T20:00:46.570Z,28.17
2023-03-01T20:03:14.274Z,28.20
2023-03-01T20:05:43.117Z,28.33
2023-03-01T20:08:13.185Z,27.30
2023-03-01T20:10:43.493Z,27.93
2023-03-01T20:13:12.647Z,25.90
2023-03-01T20:15:43.009Z,27.97
2023-03-01T20:18:11.446Z,28.73
2023-03-01T20:20:41.404Z,28.17
2023-03-01T20:23:08.373Z,28.80
2023-03-01T20:25:35.289Z,29.47
2023-03-01T20:28:02.983Z,28.83
2023-03-01T20:30:29.919Z,30.77
2023-03-01T20:32:56.922Z,29.33
2023-03-01T20:35:24.133Z,28.30
2023-03-01T20:37:54.984Z,28.13
2023-03-01T20:40:26.967Z,27.47
2023-03-01T20:42:57.731Z,28.70
2023-03-01T20:45:27.981Z,26.70
2023-03-01T20:47:55.515Z,27.67
2023-03-01T20:50:22.616Z,26.73
2023-03-01T20:52:49.539Z,27.27
2023-03-01T20:55:16.896Z,24.87
2023-03-01T20:57:43.879Z,30.37
2023-03-01T21:00:11.444Z,40.37
2023-03-01T21:02:39.006Z,50.17
2023-03-01T21:05:06.760Z,50.13
2023-03-01T21:07:33.939Z,32.77
2023-03-01T21:10:00.859Z,27.50
2023-03-01T21:12:27.857Z,25.97
2023-03-01T21:14:54.678Z,25.40
2023-03-01T21:17:21.507Z,26.83
2023-03-01T21:19:49.811Z,27.63
2023-03-01T21:22:16.735Z,24.70
2023-03-01T21:24:43.646Z,27.50
2023-03-01T21:27:11.124Z,25.63
2023-03-01T21:29:43.485Z,25.57
2023-03-01T21:32:11.678Z,26.20
2023-03-01T21:34:39.610Z,26.37
2023-03-01T21:37:08.270Z,25.10
2023-03-01T21:39:35.266Z,27.63
2023-03-01T21:42:03.875Z,26.17
2023-03-01T21:44:31.614Z,26.03
2023-03-01T21:46:59.059Z,26.77
2023-03-01T21:49:27.008Z,26.57
2023-03-01T21:51:54.125Z,26.30
2023-03-01T21:54:21.401Z,26.63
2023-03-01T21:56:48.967Z,28.40
2023-03-01T21:59:18.583Z,27.27
2023-03-01T22:01:46.850Z,27.03
2023-03-01T22:04:14.511Z,26.80
2023-03-01T22:06:43.894Z,26.77
2023-03-01T22:09:14.922Z,26.10
2023-03-01T22:11:45.411Z,27.60
2023-03-01T22:14:13.930Z,27.13
2023-03-01T22:16:45.201Z,27.77
2023-03-01T22:19:14.223Z,29.00
2023-03-01T22:21:44.305Z,27.50
2023-03-01T22:24:12.556Z,26.37
2023-03-01T22:26:44.786Z,29.80
2023-03-01T22:29:14.583Z,25.53
2023-03-01T22:31:41.877Z,28.00
2023-03-01T22:34:09.483Z,26.80
2023-03-01T22:36:36.944Z,27.37
2023-03-01T22:39:04.436Z,29.40
2023-03-01T22:41:44.983Z,27.40
2023-03-01T22:44:13.076Z,28.43
2023-03-01T22:46:40.086Z,28.93
2023-03-01T22:49:07.129Z,27.13
2023-03-01T22:51:37.350Z,28.10
2023-03-01T22:54:04.575Z,27.67
2023-03-01T22:56:34.638Z,28.83
2023-03-01T22:59:04.939Z,29.23
2023-03-01T23:01:31.940Z,26.63
2023-03-01T23:03:58.963Z,25.60
2023-03-01T23:06:25.809Z,27.60
2023-03-01T23:08:54.850Z,26.13
2023-03-01T23:11:22.884Z,27.03
2023-03-01T23:13:50.424Z,25.87
2023-03-01T23:16:17.868Z,26.57
2023-03-01T23:18:45.186Z,26.27
2023-03-01T23:21:14.759Z,26.03
2023-03-01T23:23:42.170Z,27.90
2023-03-01T23:26:09.682Z,27.67
2023-03-01T23:28:40.792Z,28.43
2023-03-01T23:31:10.243Z,26.67
2023-03-01T23:33:40.191Z,28.13
2023-03-01T23:36:32.457Z,26.50
2023-03-01T23:39:02.293Z,26.57
2023-03-01T23:41:31.816Z,27.40
2023-03-01T23:44:00.357Z,27.07
2023-03-01T23:46:29.957Z,28.13
2023-03-01T23:48:57.252Z,29.50
2023-03-01T23:51:25.280Z,30.43
2023-03-01T23:53:57.473Z,28.53
2023-03-01T23:56:33.232Z,29.40
2023-03-01T23:59:04.022Z,29.23
